Portada
METAR-TAF:

METAR-TAF

Aeroports :

Cumberland, Wisconsin, Estats Units d'Amèrica

latitud: 45-30-21N, longitud: 091-58-52W, altitud: 379 m

Observació

L'informe es va fer fa 14 minuts, a les 18:15 UTC
Vent 11 kt del Sud-Oest amb ràfegues de 15 kt
Temperatura 25°C
Humitat 65%
Pressió 1008 hPa
Visibilitat: 16.1 km
Núvols disperses a una alçada de 2500 ft

METAR: KUBE 251815Z AUTO 22011G15KT 10SM SCT025 25/18 A2978 RMK AO2

Hora: 13:29 (18:29 UTC)


TAF: manca

Observacions i pronòstics meteorològics de més de 4000 aeroports (METAR i TAF).

Les estacions disponibles són els punts grocs i vermells al mapa.

Posi el ratolí al punt desitjat per veure el nom de l'estació.

Feu clic per veure les observacions i els pronòstics meteorològics.

Per canviar el mapa: feu clic els botons verds amb una creu de color negre per apropar; al botó verd amb un guió per allunyar la imatge; o en les fletxes verdes per a mapes adjacents.


METAR-TAF: